createdAt,value
2018-06-18T00:01:47.688Z,80.21
2018-06-18T00:04:14.602Z,80.25
2018-06-18T00:06:41.532Z,80.55
2018-06-18T00:09:11.412Z,80.51
2018-06-18T00:11:38.309Z,80.90
2018-06-18T00:14:05.237Z,81.28
2018-06-18T00:16:32.145Z,81.76
2018-06-18T00:18:59.077Z,81.52
2018-06-18T00:21:26.002Z,82.24
2018-06-18T00:23:52.924Z,81.93
2018-06-18T00:26:19.831Z,82.24
2018-06-18T00:28:46.734Z,82.52
2018-06-18T00:31:13.636Z,82.58
2018-06-18T00:33:40.536Z,82.80
2018-06-18T00:36:07.437Z,83.09
2018-06-18T00:38:34.347Z,83.33
2018-06-18T00:41:01.282Z,83.60
2018-06-18T00:43:28.208Z,83.81
2018-06-18T00:45:55.108Z,84.04
2018-06-18T00:48:22.016Z,84.07
2018-06-18T00:50:48.936Z,83.76
2018-06-18T00:53:15.845Z,83.96
2018-06-18T00:55:54.440Z,84.18
2018-06-18T00:58:21.312Z,84.53
2018-06-18T01:00:48.212Z,84.28
2018-06-18T01:03:15.133Z,84.39
2018-06-18T01:05:42.035Z,85.32
2018-06-18T01:08:08.929Z,84.82
2018-06-18T01:10:35.832Z,84.84
2018-06-18T01:13:02.797Z,85.31
2018-06-18T01:15:29.712Z,85.99
2018-06-18T01:17:56.609Z,85.75
2018-06-18T01:20:23.605Z,85.80
2018-06-18T01:23:14.514Z,85.97
2018-06-18T01:25:41.441Z,86.48
2018-06-18T01:28:08.329Z,86.76
2018-06-18T01:30:35.785Z,87.16
2018-06-18T01:33:02.680Z,87.66
2018-06-18T01:35:29.681Z,88.13
2018-06-18T01:37:56.567Z,88.40
2018-06-18T01:40:23.588Z,87.95
2018-06-18T01:42:50.480Z,88.34
2018-06-18T01:45:17.381Z,88.71
2018-06-18T01:47:44.284Z,89.11
2018-06-18T01:50:11.189Z,89.12
2018-06-18T01:52:38.096Z,88.93
2018-06-18T01:55:05.025Z,89.37
2018-06-18T01:57:31.920Z,89.08
2018-06-18T01:59:58.821Z,89.15
2018-06-18T02:02:25.713Z,89.10
2018-06-18T02:04:52.614Z,89.08
2018-06-18T02:07:19.504Z,89.52
2018-06-18T02:09:46.408Z,89.62
2018-06-18T02:12:13.301Z,90.13
2018-06-18T02:14:40.216Z,89.69
2018-06-18T02:17:07.104Z,89.67
2018-06-18T02:19:33.997Z,89.86
2018-06-18T02:22:00.916Z,90.30
2018-06-18T02:24:27.813Z,90.29
2018-06-18T02:27:00.394Z,90.33
2018-06-18T02:30:34.704Z,90.25
2018-06-18T02:33:07.426Z,90.48
2018-06-18T02:35:40.112Z,90.43
2018-06-18T02:38:12.800Z,90.18
2018-06-18T02:40:45.950Z,90.44
2018-06-18T02:43:14.020Z,90.79
2018-06-18T02:45:40.969Z,90.53
2018-06-18T02:48:07.852Z,90.56
2018-06-18T02:50:34.773Z,90.70
2018-06-18T02:53:01.685Z,90.75
2018-06-18T02:55:28.617Z,91.13
2018-06-18T02:57:55.553Z,91.10
2018-06-18T03:00:22.644Z,91.10
2018-06-18T03:02:49.581Z,91.15
2018-06-18T03:05:16.493Z,91.40
2018-06-18T03:07:43.406Z,91.49
2018-06-18T03:10:10.317Z,91.63
2018-06-18T03:12:37.237Z,91.97
2018-06-18T03:15:04.183Z,91.99
2018-06-18T03:17:31.103Z,92.19
2018-06-18T03:20:03.881Z,92.15
2018-06-18T03:22:36.509Z,92.09
2018-06-18T03:25:09.265Z,92.24
2018-06-18T03:27:42.013Z,92.02
2018-06-18T03:30:08.970Z,91.48
2018-06-18T03:32:35.888Z,91.91
2018-06-18T03:35:02.837Z,92.02
2018-06-18T03:37:29.753Z,91.85
2018-06-18T03:39:56.669Z,91.86
2018-06-18T03:42:23.583Z,92.07
2018-06-18T03:44:59.884Z,91.48
2018-06-18T03:47:28.586Z,91.08
2018-06-18T03:49:55.497Z,90.62
2018-06-18T03:52:22.442Z,90.51
2018-06-18T03:54:51.166Z,90.69
2018-06-18T03:57:18.570Z,91.20
2018-06-18T03:59:45.534Z,91.38
2018-06-18T04:02:29.850Z,91.58
2018-06-18T04:05:02.477Z,91.65
2018-06-18T04:07:39.951Z,91.28
2018-06-18T04:10:12.545Z,91.42
2018-06-18T04:12:39.512Z,90.91
2018-06-18T04:15:06.461Z,90.74
2018-06-18T04:17:33.414Z,90.82
2018-06-18T04:20:00.329Z,91.04
2018-06-18T04:22:27.277Z,90.67
2018-06-18T04:24:54.218Z,90.52
2018-06-18T04:27:21.153Z,90.55
2018-06-18T04:29:48.118Z,90.95
2018-06-18T04:32:15.051Z,91.04
2018-06-18T04:34:46.958Z,90.83
2018-06-18T04:37:13.910Z,91.02
2018-06-18T04:39:40.841Z,90.82
2018-06-18T04:42:13.536Z,91.04
2018-06-18T04:44:46.344Z,90.66
2018-06-18T04:47:19.096Z,90.52
2018-06-18T04:49:51.873Z,90.25
2018-06-18T04:52:18.838Z,90.02
2018-06-18T04:54:45.748Z,89.50
2018-06-18T04:57:12.683Z,89.58
2018-06-18T04:59:43.409Z,89.61
2018-06-18T05:02:10.345Z,89.15
2018-06-18T05:04:37.291Z,88.79
2018-06-18T05:07:04.337Z,88.18
2018-06-18T05:09:48.373Z,88.19
2018-06-18T05:12:15.305Z,88.23
2018-06-18T05:14:42.240Z,88.11
2018-06-18T05:17:09.177Z,87.80
2018-06-18T05:19:36.101Z,87.28
2018-06-18T05:22:03.039Z,87.27
2018-06-18T05:24:30.253Z,86.95
2018-06-18T05:26:58.013Z,86.76
2018-06-18T05:29:25.800Z,86.39
2018-06-18T05:31:59.554Z,86.30
2018-06-18T05:34:28.789Z,86.03
2018-06-18T05:36:58.025Z,86.09
2018-06-18T05:39:24.973Z,85.83
2018-06-18T05:41:51.909Z,84.88
2018-06-18T05:44:18.846Z,84.49
2018-06-18T05:46:45.765Z,84.08
2018-06-18T05:49:12.729Z,84.75
2018-06-18T05:51:39.654Z,84.78
2018-06-18T05:54:06.599Z,84.92
2018-06-18T05:56:33.524Z,84.78
2018-06-18T05:59:00.450Z,83.81
2018-06-18T06:01:27.374Z,83.25
2018-06-18T06:03:54.785Z,83.12
2018-06-18T06:06:21.733Z,82.99
2018-06-18T06:08:48.660Z,82.24
2018-06-18T06:11:15.614Z,82.97
2018-06-18T06:13:42.537Z,82.08
2018-06-18T06:16:09.470Z,80.40
2018-06-18T06:18:36.394Z,81.02
2018-06-18T06:21:06.192Z,80.15
2018-06-18T06:23:33.114Z,79.16
2018-06-18T06:26:00.040Z,78.82
2018-06-18T06:28:26.981Z,79.10
2018-06-18T06:30:54.142Z,78.61
2018-06-18T06:33:22.250Z,78.87
2018-06-18T06:35:49.186Z,76.83
2018-06-18T06:38:16.109Z,75.27
2018-06-18T06:40:43.522Z,75.24
2018-06-18T06:43:10.668Z,72.67
2018-06-18T06:45:37.597Z,71.22
2018-06-18T06:48:04.593Z,70.97
2018-06-18T06:50:31.529Z,70.48
2018-06-18T06:52:58.569Z,70.79
2018-06-18T06:55:25.496Z,71.98
2018-06-18T06:57:52.434Z,71.75
2018-06-18T07:00:19.362Z,71.20
2018-06-18T07:02:46.279Z,72.25
2018-06-18T07:05:13.209Z,72.04
2018-06-18T07:07:40.145Z,71.65
2018-06-18T07:10:07.255Z,72.04
2018-06-18T07:12:34.177Z,71.77
2018-06-18T07:15:01.108Z,70.13
2018-06-18T07:17:28.054Z,71.38
2018-06-18T07:19:54.972Z,71.31
2018-06-18T07:22:21.889Z,71.16
2018-06-18T07:24:48.818Z,71.50
2018-06-18T07:27:15.773Z,71.31
2018-06-18T07:29:42.721Z,71.33
2018-06-18T07:32:09.658Z,70.09
2018-06-18T07:34:36.585Z,68.34
2018-06-18T07:37:03.522Z,66.96
2018-06-18T07:39:30.485Z,65.42
2018-06-18T07:41:57.414Z,65.52
2018-06-18T07:44:24.334Z,66.26
2018-06-18T07:46:51.269Z,66.36
2018-06-18T07:49:18.193Z,65.98
2018-06-18T07:51:45.300Z,66.25
2018-06-18T07:54:12.069Z,66.76
2018-06-18T07:56:38.992Z,67.16
2018-06-18T07:59:05.923Z,66.19
2018-06-18T08:01:32.861Z,65.90
2018-06-18T08:03:59.803Z,62.99
2018-06-18T08:06:27.018Z,62.37
2018-06-18T08:08:53.980Z,63.34
2018-06-18T08:11:20.928Z,62.11
2018-06-18T08:13:47.835Z,60.02
2018-06-18T08:16:14.824Z,60.53
2018-06-18T08:18:41.793Z,60.93
2018-06-18T08:21:08.737Z,60.16
2018-06-18T08:23:35.657Z,58.29
2018-06-18T08:26:02.597Z,58.64
2018-06-18T08:28:29.521Z,56.68
2018-06-18T08:30:56.456Z,56.85
2018-06-18T08:33:23.377Z,56.88
2018-06-18T08:35:50.311Z,56.96
2018-06-18T08:38:17.248Z,57.94
2018-06-18T08:40:44.189Z,56.94
2018-06-18T08:43:11.115Z,55.79
2018-06-18T08:45:38.054Z,55.18
2018-06-18T08:48:04.996Z,55.42
2018-06-18T08:50:37.732Z,57.89
2018-06-18T08:53:10.359Z,55.60
2018-06-18T08:55:43.117Z,55.92
2018-06-18T08:58:15.744Z,55.51
2018-06-18T09:00:48.512Z,56.50
2018-06-18T09:03:21.177Z,58.60
2018-06-18T09:05:48.251Z,58.25
2018-06-18T09:08:21.049Z,57.39
2018-06-18T09:10:47.960Z,59.26
2018-06-18T09:13:14.897Z,58.48
2018-06-18T09:15:41.820Z,57.25
2018-06-18T09:18:08.763Z,57.76
2018-06-18T09:20:35.689Z,59.27
2018-06-18T09:23:02.657Z,60.70
2018-06-18T09:25:29.589Z,61.50
2018-06-18T09:27:56.523Z,60.75
2018-06-18T09:30:23.470Z,60.69
2018-06-18T09:32:50.413Z,61.22
2018-06-18T09:35:17.366Z,60.87
2018-06-18T09:37:44.297Z,60.83
2018-06-18T09:40:11.233Z,59.14
2018-06-18T09:42:38.165Z,58.84
2018-06-18T09:45:05.101Z,59.18
2018-06-18T09:47:32.030Z,60.78
2018-06-18T09:50:04.644Z,61.34
2018-06-18T09:52:37.357Z,62.72
2018-06-18T09:55:10.033Z,63.10
2018-06-18T09:57:42.765Z,64.09
2018-06-18T10:00:21.441Z,64.55
2018-06-18T10:02:48.386Z,66.21
2018-06-18T10:05:19.906Z,67.31
2018-06-18T10:07:46.845Z,68.15
2018-06-18T10:10:13.775Z,70.48
2018-06-18T10:12:40.696Z,71.97
2018-06-18T10:15:07.625Z,69.46
2018-06-18T10:17:34.549Z,69.04
2018-06-18T10:20:01.490Z,67.12
2018-06-18T10:22:28.421Z,65.43
2018-06-18T10:24:55.352Z,64.37
2018-06-18T10:27:22.286Z,64.47
2018-06-18T10:29:49.212Z,62.34
2018-06-18T10:32:21.880Z,62.16
2018-06-18T10:34:54.578Z,61.98
2018-06-18T10:37:27.361Z,61.63
2018-06-18T10:40:00.057Z,63.55
2018-06-18T10:42:32.722Z,63.30
2018-06-18T10:44:59.682Z,64.09
2018-06-18T10:47:26.601Z,64.71
2018-06-18T10:49:53.843Z,64.67
2018-06-18T10:52:20.788Z,64.76
2018-06-18T10:54:47.721Z,65.49
2018-06-18T10:57:14.634Z,65.82
2018-06-18T10:59:41.569Z,65.96
2018-06-18T11:02:08.511Z,65.79
2018-06-18T11:04:35.438Z,66.08
2018-06-18T11:07:02.350Z,65.37
2018-06-18T11:09:29.289Z,65.53
2018-06-18T11:11:56.213Z,66.54
2018-06-18T11:14:23.138Z,66.34
2018-06-18T11:16:55.891Z,66.92
2018-06-18T11:19:28.505Z,67.87
2018-06-18T11:22:01.236Z,67.72
2018-06-18T11:24:34.038Z,67.21
2018-06-18T11:27:00.970Z,66.94
2018-06-18T11:29:27.918Z,66.42
2018-06-18T11:31:54.850Z,68.09
2018-06-18T11:34:21.805Z,67.34
2018-06-18T11:36:48.804Z,68.32
2018-06-18T11:39:15.769Z,68.93
2018-06-18T11:41:42.683Z,70.91
2018-06-18T11:44:09.613Z,71.29
2018-06-18T11:46:36.541Z,70.06
2018-06-18T11:49:03.525Z,70.64
2018-06-18T11:51:30.479Z,69.92
2018-06-18T11:53:57.396Z,70.50
2018-06-18T11:56:24.366Z,71.80
2018-06-18T11:58:56.986Z,72.89
2018-06-18T12:01:29.717Z,72.89
2018-06-18T12:04:02.396Z,73.46
2018-06-18T12:06:35.132Z,75.24
2018-06-18T12:09:07.853Z,74.67
2018-06-18T12:11:34.806Z,75.30
2018-06-18T12:14:01.797Z,74.60
2018-06-18T12:16:33.305Z,74.08
2018-06-18T12:19:00.266Z,73.79
2018-06-18T12:21:27.191Z,73.58
2018-06-18T12:23:54.129Z,73.17
2018-06-18T12:26:21.083Z,73.50
2018-06-18T12:28:47.989Z,74.97
2018-06-18T12:31:14.925Z,75.88
2018-06-18T12:33:41.838Z,76.00
2018-06-18T12:36:09.091Z,76.02
2018-06-18T12:38:36.013Z,75.76
2018-06-18T12:41:03.025Z,73.35
2018-06-18T12:43:33.448Z,73.61
2018-06-18T12:46:06.038Z,73.01
2018-06-18T12:48:38.725Z,71.32
2018-06-18T12:51:11.299Z,71.67
2018-06-18T12:53:43.987Z,72.51
2018-06-18T12:56:16.641Z,71.99
2018-06-18T12:58:43.561Z,71.14
2018-06-18T13:01:12.311Z,71.63
2018-06-18T13:03:39.233Z,70.27
2018-06-18T13:06:06.174Z,69.81
2018-06-18T13:08:33.104Z,70.68
2018-06-18T13:11:00.034Z,70.64
2018-06-18T13:13:26.964Z,70.15
2018-06-18T13:15:53.896Z,70.38
2018-06-18T13:18:20.855Z,69.81
2018-06-18T13:20:47.778Z,69.54
2018-06-18T13:23:14.699Z,71.00
2018-06-18T13:25:41.613Z,70.21
2018-06-18T13:28:14.436Z,71.09
2018-06-18T13:30:41.381Z,70.38
2018-06-18T13:33:08.308Z,71.55
2018-06-18T13:35:35.233Z,73.11
2018-06-18T13:38:07.842Z,73.43
2018-06-18T13:40:40.509Z,75.31
2018-06-18T13:43:13.330Z,76.04
2018-06-18T13:45:42.789Z,75.68
2018-06-18T13:48:15.641Z,74.72
2018-06-18T13:50:42.579Z,75.25
2018-06-18T13:53:09.544Z,76.14
2018-06-18T13:55:36.469Z,75.40
2018-06-18T13:58:03.414Z,78.96
2018-06-18T14:00:30.336Z,79.52
2018-06-18T14:02:57.267Z,81.49
2018-06-18T14:05:24.185Z,83.85
2018-06-18T14:07:51.125Z,84.67
2018-06-18T14:10:18.058Z,81.88
2018-06-18T14:12:44.993Z,82.48
2018-06-18T14:15:11.921Z,83.48
2018-06-18T14:17:38.850Z,82.06
2018-06-18T14:20:11.539Z,82.00
2018-06-18T14:22:38.469Z,82.67
2018-06-18T14:25:05.416Z,83.69
2018-06-18T14:27:32.350Z,84.49
2018-06-18T14:30:04.936Z,82.38
2018-06-18T14:32:37.637Z,83.85
2018-06-18T14:35:10.392Z,82.73
2018-06-18T14:37:43.054Z,82.86
2018-06-18T14:40:13.632Z,83.00
2018-06-18T14:42:40.626Z,82.69
2018-06-18T14:45:07.503Z,81.56
2018-06-18T14:47:34.480Z,82.58
2018-06-18T14:50:01.397Z,82.74
2018-06-18T14:52:28.600Z,81.49
2018-06-18T14:54:55.493Z,81.44
2018-06-18T14:57:22.597Z,81.14
2018-06-18T14:59:52.204Z,81.61
2018-06-18T15:02:19.113Z,81.71
2018-06-18T15:04:46.038Z,80.98
2018-06-18T15:07:12.986Z,79.91
2018-06-18T15:09:39.940Z,78.48
2018-06-18T15:12:07.473Z,77.72
2018-06-18T15:14:34.424Z,78.41
2018-06-18T15:17:01.338Z,78.14
2018-06-18T15:19:28.268Z,77.56
2018-06-18T15:21:56.897Z,77.54
2018-06-18T15:24:33.349Z,75.52
2018-06-18T15:27:00.343Z,75.85
2018-06-18T15:29:27.214Z,73.81
2018-06-18T15:31:54.143Z,75.80
2018-06-18T15:34:21.094Z,73.26
2018-06-18T15:36:48.022Z,72.87
2018-06-18T15:39:14.964Z,73.75
2018-06-18T15:41:41.904Z,73.06
2018-06-18T15:44:09.028Z,74.00
2018-06-18T15:46:36.013Z,73.92
2018-06-18T15:49:02.961Z,74.52
2018-06-18T15:51:29.893Z,75.06
2018-06-18T15:53:56.878Z,76.26
2018-06-18T15:56:23.864Z,76.61
2018-06-18T15:58:50.767Z,81.49
2018-06-18T16:01:17.710Z,82.71
2018-06-18T16:03:44.661Z,83.01
2018-06-18T16:06:11.597Z,84.75
2018-06-18T16:08:38.529Z,91.09
2018-06-18T16:11:05.489Z,96.62
2018-06-18T16:13:32.488Z,99.81
2018-06-18T16:15:59.406Z,100.00
2018-06-18T16:18:26.335Z,100.00
2018-06-18T16:20:53.245Z,100.00
2018-06-18T16:23:20.198Z,100.00
2018-06-18T16:25:47.142Z,100.00
2018-06-18T16:28:14.090Z,100.00
2018-06-18T16:30:41.037Z,100.00
2018-06-18T16:33:07.976Z,100.00
2018-06-18T16:35:34.941Z,100.00
2018-06-18T16:38:01.859Z,100.00
2018-06-18T16:40:28.809Z,100.00
2018-06-18T16:42:55.741Z,100.00
2018-06-18T16:45:22.693Z,100.00
2018-06-18T16:47:49.613Z,100.00
2018-06-18T16:50:16.538Z,100.00
2018-06-18T16:52:43.462Z,100.00
2018-06-18T16:55:10.425Z,100.00
2018-06-18T16:57:37.369Z,100.00
2018-06-18T17:00:04.470Z,100.00
2018-06-18T17:02:31.409Z,100.00
2018-06-18T17:04:58.349Z,100.00
2018-06-18T17:07:25.266Z,100.00
2018-06-18T17:09:52.215Z,100.00
2018-06-18T17:12:19.169Z,100.00
2018-06-18T17:14:46.168Z,100.00
2018-06-18T17:17:13.116Z,100.00
2018-06-18T17:19:40.045Z,100.00
2018-06-18T17:22:07.082Z,100.00
2018-06-18T17:24:34.102Z,100.00
2018-06-18T17:27:01.100Z,100.00
2018-06-18T17:29:28.033Z,100.00
2018-06-18T17:31:55.065Z,100.00
2018-06-18T17:34:22.009Z,100.00
2018-06-18T17:36:48.958Z,100.00
2018-06-18T17:39:15.892Z,100.00
2018-06-18T17:41:49.674Z,100.00
2018-06-18T17:44:16.618Z,100.00
2018-06-18T17:46:43.640Z,100.00
2018-06-18T17:49:10.603Z,100.00
2018-06-18T17:51:37.882Z,100.00
2018-06-18T17:54:04.901Z,100.00
2018-06-18T17:56:31.845Z,100.00
2018-06-18T17:58:58.765Z,100.00
2018-06-18T18:01:25.761Z,100.00
2018-06-18T18:03:52.740Z,100.00
2018-06-18T18:06:19.690Z,100.00
2018-06-18T18:08:46.822Z,100.00
2018-06-18T18:11:13.786Z,100.00
2018-06-18T18:13:40.724Z,100.00
2018-06-18T18:16:07.656Z,100.00
2018-06-18T18:18:34.561Z,100.00
2018-06-18T18:21:01.495Z,100.00
2018-06-18T18:23:28.432Z,100.00
2018-06-18T18:25:55.376Z,100.00
2018-06-18T18:28:22.633Z,100.00
2018-06-18T18:30:49.718Z,100.00
2018-06-18T18:33:16.687Z,100.00
2018-06-18T18:35:44.654Z,100.00
2018-06-18T18:38:11.596Z,100.00
2018-06-18T18:40:38.754Z,100.00
2018-06-18T18:43:07.753Z,100.00
2018-06-18T18:45:34.858Z,100.00
2018-06-18T18:48:01.701Z,100.00
2018-06-18T18:50:28.629Z,100.00
2018-06-18T18:52:55.587Z,100.00
2018-06-18T18:55:36.535Z,100.00
2018-06-18T18:58:16.565Z,100.00
2018-06-18T19:00:44.767Z,100.00
2018-06-18T19:03:11.836Z,100.00
2018-06-18T19:05:38.809Z,100.00
2018-06-18T19:08:06.361Z,100.00
2018-06-18T19:10:35.388Z,100.00
2018-06-18T19:13:05.005Z,100.00
2018-06-18T19:15:31.936Z,100.00
2018-06-18T19:17:58.877Z,100.00
2018-06-18T19:20:33.198Z,100.00
2018-06-18T19:23:01.864Z,100.00
2018-06-18T19:25:28.798Z,100.00
2018-06-18T19:27:55.741Z,100.00
2018-06-18T19:30:22.744Z,100.00
2018-06-18T19:32:51.410Z,100.00
2018-06-18T19:35:18.345Z,100.00
2018-06-18T19:37:45.274Z,100.00
2018-06-18T19:40:12.193Z,100.00
2018-06-18T19:42:39.138Z,100.00
2018-06-18T19:45:08.857Z,100.00
2018-06-18T19:47:40.774Z,100.00
2018-06-18T19:50:07.713Z,100.00
2018-06-18T19:52:34.660Z,100.00
2018-06-18T19:55:34.262Z,100.00
2018-06-18T19:58:01.236Z,100.00
2018-06-18T20:00:35.776Z,100.00
2018-06-18T20:03:02.701Z,100.00
2018-06-18T20:05:29.633Z,100.00
2018-06-18T20:07:59.553Z,100.00
2018-06-18T20:10:26.532Z,100.00
2018-06-18T20:12:53.853Z,100.00
2018-06-18T20:15:20.785Z,100.00
2018-06-18T20:17:47.740Z,100.00
2018-06-18T20:20:15.171Z,100.00
2018-06-18T20:22:42.158Z,100.00
2018-06-18T20:25:09.108Z,100.00
2018-06-18T20:27:36.042Z,100.00
2018-06-18T20:30:05.494Z,100.00
2018-06-18T20:32:32.434Z,100.00
2018-06-18T20:34:59.382Z,100.00
2018-06-18T20:37:26.313Z,100.00
2018-06-18T20:39:53.693Z,100.00
2018-06-18T20:42:20.606Z,100.00
2018-06-18T20:44:47.551Z,100.00
2018-06-18T20:47:14.503Z,100.00
2018-06-18T20:49:41.416Z,100.00
2018-06-18T20:52:08.384Z,100.00
2018-06-18T20:54:35.333Z,100.00
2018-06-18T20:57:02.328Z,100.00
2018-06-18T20:59:29.198Z,100.00
2018-06-18T21:01:56.137Z,100.00
2018-06-18T21:04:23.059Z,100.00
2018-06-18T21:06:49.997Z,100.00
2018-06-18T21:09:16.916Z,100.00
2018-06-18T21:11:43.862Z,100.00
2018-06-18T21:14:11.053Z,100.00
2018-06-18T21:16:40.335Z,100.00
2018-06-18T21:19:07.332Z,100.00
2018-06-18T21:21:34.202Z,100.00
2018-06-18T21:24:01.131Z,100.00
2018-06-18T21:26:28.062Z,100.00
2018-06-18T21:28:54.980Z,100.00
2018-06-18T21:31:22.160Z,100.00
2018-06-18T21:33:49.065Z,100.00
2018-06-18T21:36:15.985Z,100.00
2018-06-18T21:38:42.911Z,100.00
2018-06-18T21:41:09.839Z,100.00
2018-06-18T21:43:36.756Z,100.00
2018-06-18T21:46:04.200Z,100.00
2018-06-18T21:48:31.129Z,100.00
2018-06-18T21:50:58.056Z,100.00
2018-06-18T21:53:24.996Z,100.00
2018-06-18T21:55:51.942Z,100.00
2018-06-18T21:58:18.871Z,100.00
2018-06-18T22:00:48.035Z,100.00
2018-06-18T22:03:15.029Z,100.00
2018-06-18T22:05:41.966Z,100.00
2018-06-18T22:08:11.239Z,100.00
2018-06-18T22:10:38.533Z,100.00
2018-06-18T22:13:05.518Z,100.00
2018-06-18T22:15:32.510Z,100.00
2018-06-18T22:17:59.485Z,100.00
2018-06-18T22:20:26.441Z,100.00
2018-06-18T22:22:53.449Z,100.00
2018-06-18T22:25:20.385Z,100.00
2018-06-18T22:27:48.274Z,100.00
2018-06-18T22:30:15.301Z,100.00
2018-06-18T22:32:42.217Z,100.00
2018-06-18T22:35:09.170Z,100.00
2018-06-18T22:37:36.108Z,100.00
2018-06-18T22:40:04.146Z,100.00
2018-06-18T22:42:31.285Z,100.00
2018-06-18T22:44:59.800Z,100.00
2018-06-18T22:47:26.728Z,100.00
2018-06-18T22:49:53.661Z,100.00
2018-06-18T22:52:20.605Z,100.00
2018-06-18T22:54:48.581Z,100.00
2018-06-18T22:57:16.461Z,100.00
2018-06-18T22:59:43.794Z,100.00
2018-06-18T23:02:11.737Z,100.00
2018-06-18T23:04:38.705Z,100.00
2018-06-18T23:07:06.400Z,100.00
2018-06-18T23:09:34.032Z,100.00
2018-06-18T23:12:00.978Z,100.00
2018-06-18T23:14:27.941Z,100.00
2018-06-18T23:16:54.920Z,100.00
2018-06-18T23:19:21.884Z,100.00
2018-06-18T23:21:48.817Z,100.00
2018-06-18T23:24:15.737Z,100.00
2018-06-18T23:26:42.694Z,100.00
2018-06-18T23:29:11.731Z,100.00
2018-06-18T23:31:38.701Z,100.00
2018-06-18T23:34:05.641Z,100.00
2018-06-18T23:36:32.586Z,100.00
2018-06-18T23:38:59.560Z,100.00
2018-06-18T23:41:28.105Z,100.00
2018-06-18T23:43:55.049Z,100.00
2018-06-18T23:46:21.996Z,100.00
2018-06-18T23:48:48.940Z,100.00
2018-06-18T23:51:15.978Z,100.00
2018-06-18T23:53:42.938Z,100.00
2018-06-18T23:56:09.909Z,100.00
2018-06-18T23:58:36.845Z,100.00
